Time;durP1;ratioP1;P1;durP2;ratioP2;P2;SDS_P1;SDS_P2;PMS_P1;PMS_P2;Temp;Humidity;BMP_temperature;BMP_pressure;BME280_temperature;BME280_humidity;BME280_pressure;Samples;Min_cycle;Max_cycle;Signal;HPM_P1;HPM_P2
2023/02/17 00:00:26;;;;;;;3.00;2.80;;;;;16.20;100892.00;;;;2087151;28;20213;-50
2023/02/17 00:01:31;;;;;;;3.23;2.93;;;;;16.20;100901.00;;;;2087052;28;20297;-50
2023/02/17 00:02:31;;;;;;;3.00;2.80;;;;;16.20;100895.00;;;;2087095;28;20247;-50
2023/02/17 00:03:32;;;;;;;3.87;3.50;;;;;16.20;100897.00;;;;2086955;28;20369;-51
2023/02/17 00:04:32;;;;;;;3.40;3.10;;;;;16.20;100891.00;;;;2086822;28;20215;-50
2023/02/17 00:05:32;;;;;;;3.17;2.97;;;;;16.20;100892.00;;;;2087241;28;20221;-51
2023/02/17 00:06:33;;;;;;;3.33;3.03;;;;;16.20;100906.00;;;;2087362;28;20209;-50
2023/02/17 00:07:33;;;;;;;3.40;3.10;;;;;16.20;100898.00;;;;2087709;28;20201;-51
2023/02/17 00:08:34;;;;;;;3.20;2.90;;;;;16.20;100895.00;;;;2086160;28;20231;-50
2023/02/17 00:09:35;;;;;;;3.40;3.10;;;;;16.20;100894.00;;;;2087276;28;20265;-51
2023/02/17 00:10:36;;;;;;;3.15;2.95;;;;;16.20;100895.00;;;;2087636;28;20281;-51
2023/02/17 00:11:36;;;;;;;3.70;3.40;;;;;16.20;100891.00;;;;2085544;28;20212;-50
2023/02/17 00:12:36;;;;;;;3.53;3.23;;;;;16.20;100892.00;;;;2087158;28;20223;-50
2023/02/17 00:13:37;;;;;;;3.53;3.23;;;;;16.20;100882.00;;;;2087422;28;20244;-50
2023/02/17 00:14:40;;;;;;;3.43;3.13;;;;;16.20;100879.00;;;;2087229;28;20212;-51
2023/02/17 00:15:40;;;;;;;3.95;3.55;;;;;16.20;100883.00;;;;2087112;28;20290;-50
2023/02/17 00:16:41;;;;;;;3.10;2.90;;;;;16.20;100885.00;;;;2086884;28;20286;-51
2023/02/17 00:17:41;;;;;;;3.63;3.33;;;;;16.20;100876.00;;;;2087175;28;20204;-50
2023/02/17 00:18:41;;;;;;;3.50;3.20;;;;;16.20;100875.00;;;;2086174;28;20288;-50
2023/02/17 00:19:42;;;;;;;3.70;3.30;;;;;16.20;100887.00;;;;2085816;28;20220;-51
2023/02/17 00:20:42;;;;;;;3.77;3.47;;;;;16.20;100884.00;;;;2086539;28;20209;-51
2023/02/17 00:21:42;;;;;;;2.97;2.77;;;;;16.20;100877.00;;;;2086999;28;20604;-51
2023/02/17 00:22:42;;;;;;;3.20;3.00;;;;;16.20;100882.00;;;;2087454;28;20637;-51
2023/02/17 00:23:43;;;;;;;3.30;3.00;;;;;16.20;100874.00;;;;2087670;28;20758;-51
2023/02/17 00:24:44;;;;;;;3.27;2.97;;;;;16.20;100877.00;;;;2087333;28;20683;-51
2023/02/17 00:25:44;;;;;;;3.40;3.10;;;;;16.20;100871.00;;;;2087708;28;20201;-51
2023/02/17 00:26:44;;;;;;;2.90;2.70;;;;;16.20;100873.00;;;;2087557;28;20712;-51
2023/02/17 00:27:45;;;;;;;3.30;3.00;;;;;16.20;100912.00;;;;2087588;28;20213;-51
2023/02/17 00:28:45;;;;;;;2.90;2.70;;;;;16.20;100875.00;;;;2086810;28;20673;-50
2023/02/17 00:29:45;;;;;;;3.33;3.03;;;;;16.20;100873.00;;;;2086906;28;20736;-50
2023/02/17 00:30:46;;;;;;;3.60;3.30;;;;;16.20;100877.00;;;;2086773;28;20236;-50
2023/02/17 00:31:46;;;;;;;3.33;3.03;;;;;16.20;100869.00;;;;2087680;28;20213;-51
2023/02/17 00:32:46;;;;;;;2.93;2.73;;;;;16.20;100871.00;;;;2087486;28;20224;-51
2023/02/17 00:33:47;;;;;;;3.43;3.13;;;;;16.20;100875.00;;;;2087253;28;20595;-51
2023/02/17 00:34:47;;;;;;;2.90;2.70;;;;;16.20;100871.00;;;;2087370;28;20217;-51
2023/02/17 00:35:48;;;;;;;3.30;2.60;;;;;15.80;100872.00;;;;2087579;28;20212;-51
2023/02/17 00:36:48;;;;;;;3.30;3.00;;;;;16.20;100864.00;;;;2087556;28;20255;-51
2023/02/17 00:37:48;;;;;;;3.30;3.00;;;;;16.20;100872.00;;;;2087390;28;20720;-51
2023/02/17 00:38:49;;;;;;;3.27;2.97;;;;;16.20;100874.00;;;;2086774;28;20244;-51
2023/02/17 00:39:49;;;;;;;3.27;2.90;;;;;16.20;100881.00;;;;2087678;28;20217;-51
2023/02/17 00:40:49;;;;;;;3.63;3.30;;;;;16.20;100861.00;;;;2087631;28;20205;-50
2023/02/17 00:41:50;;;;;;;3.60;3.30;;;;;16.20;100863.00;;;;2086669;28;20213;-51
2023/02/17 00:42:50;;;;;;;3.03;2.73;;;;;15.80;100861.00;;;;2087555;28;20271;-51
2023/02/17 00:43:50;;;;;;;3.00;2.77;;;;;16.20;100845.00;;;;2086890;28;20248;-51
2023/02/17 00:44:51;;;;;;;3.27;2.97;;;;;16.20;100861.00;;;;2086577;28;20220;-51
2023/02/17 00:45:51;;;;;;;3.33;3.07;;;;;16.20;100857.00;;;;2087405;28;20205;-51
2023/02/17 00:46:51;;;;;;;3.17;2.87;;;;;16.20;100861.00;;;;2087555;28;21111;-51
2023/02/17 00:47:52;;;;;;;3.50;3.20;;;;;16.20;100856.00;;;;2086772;28;20632;-50
2023/02/17 00:48:52;;;;;;;3.33;3.00;;;;;16.20;100856.00;;;;2085839;28;20560;-51
2023/02/17 00:49:52;;;;;;;2.87;2.67;;;;;16.20;100863.00;;;;2087654;28;20632;-51
2023/02/17 00:50:53;;;;;;;2.90;2.70;;;;;16.20;100858.00;;;;2087332;28;20208;-51
2023/02/17 00:51:53;;;;;;;2.87;2.67;;;;;16.20;100862.00;;;;2087447;28;20298;-52
2023/02/17 00:52:53;;;;;;;3.13;2.93;;;;;16.20;100858.00;;;;2087590;28;20213;-50
2023/02/17 00:53:54;;;;;;;3.40;3.10;;;;;16.20;100866.00;;;;2087286;28;20217;-50
2023/02/17 00:54:54;;;;;;;3.27;3.07;;;;;16.20;100859.00;;;;2087552;28;20247;-50
2023/02/17 00:55:55;;;;;;;3.30;3.00;;;;;16.20;100860.00;;;;2087350;28;20217;-50
2023/02/17 00:56:55;;;;;;;2.93;2.73;;;;;16.20;100859.00;;;;2086848;28;20614;-50
2023/02/17 00:57:55;;;;;;;3.50;3.20;;;;;16.20;100855.00;;;;2086654;28;20216;-50
2023/02/17 00:58:56;;;;;;;3.57;3.27;;;;;16.20;100852.00;;;;2086810;28;20221;-50
2023/02/17 00:59:57;;;;;;;2.90;2.70;;;;;16.20;100856.00;;;;2087497;28;20246;-50
2023/02/17 01:00:57;;;;;;;2.87;2.67;;;;;16.20;100854.00;;;;2087228;28;20831;-50
2023/02/17 01:01:57;;;;;;;3.23;3.03;;;;;16.20;100864.00;;;;2087292;28;20228;-50
2023/02/17 01:02:58;;;;;;;3.70;3.40;;;;;16.20;100857.00;;;;2087459;28;20239;-50
2023/02/17 01:03:58;;;;;;;3.23;3.03;;;;;16.20;100856.00;;;;2087204;28;20247;-50
2023/02/17 01:04:58;;;;;;;3.10;2.80;;;;;16.20;100868.00;;;;2087046;28;20940;-50
2023/02/17 01:06:03;;;;;;;2.73;2.53;;;;;16.20;100854.00;;;;2087197;28;20918;-50
2023/02/17 01:07:03;;;;;;;3.05;2.85;;;;;16.20;100862.00;;;;2086593;28;20291;-50
2023/02/17 01:08:04;;;;;;;3.07;2.67;;;;;16.20;100857.00;;;;2084736;28;20614;-53
2023/02/17 01:09:05;;;;;;;3.07;2.87;;;;;16.20;100860.00;;;;2087370;28;20241;-52
2023/02/17 01:10:06;;;;;;;3.10;2.80;;;;;16.20;100856.00;;;;2087219;28;20251;-50
2023/02/17 01:11:06;;;;;;;3.58;3.00;;;;;16.20;100851.00;;;;2087190;28;20350;-50
2023/02/17 01:12:07;;;;;;;3.17;2.87;;;;;16.20;100857.00;;;;2086993;28;20217;-50
2023/02/17 01:13:07;;;;;;;3.10;2.87;;;;;16.20;100850.00;;;;2087228;28;20243;-50
2023/02/17 01:14:07;;;;;;;2.93;2.73;;;;;16.20;100844.00;;;;2077493;28;20217;-50
2023/02/17 01:15:08;;;;;;;3.00;2.80;;;;;16.20;100844.00;;;;2094013;28;20216;-51
2023/02/17 01:16:21;;;;;;;3.10;2.83;;;;;16.20;100861.00;;;;2094220;28;20216;-50
2023/02/17 01:17:21;;;;;;;3.20;2.90;;;;;16.20;100852.00;;;;2086649;28;20600;-50
2023/02/17 01:18:22;;;;;;;3.57;3.27;;;;;16.20;100837.00;;;;2085436;28;20295;-50
2023/02/17 01:19:22;;;;;;;3.10;2.77;;;;;16.20;100854.00;;;;2087090;28;20217;-50
2023/02/17 01:20:23;;;;;;;3.10;2.90;;;;;16.20;100839.00;;;;2087162;28;20213;-50
2023/02/17 01:21:25;;;;;;;2.70;2.50;;;;;16.20;100844.00;;;;2087220;28;20227;-50
2023/02/17 01:22:25;;;;;;;3.58;3.28;;;;;16.20;100844.00;;;;2086517;28;20225;-50
2023/02/17 01:23:25;;;;;;;2.67;2.47;;;;;16.20;100844.00;;;;2086496;28;20359;-50
2023/02/17 01:24:26;;;;;;;3.13;2.93;;;;;16.20;100839.00;;;;2085437;28;20235;-50
2023/02/17 01:25:26;;;;;;;3.30;3.10;;;;;16.20;100834.00;;;;2086907;28;20224;-50
2023/02/17 01:26:27;;;;;;;2.63;2.43;;;;;16.20;100844.00;;;;2087254;28;20300;-50
2023/02/17 01:27:27;;;;;;;3.03;2.77;;;;;16.20;100836.00;;;;2084882;28;20217;-50
2023/02/17 01:28:30;;;;;;;2.87;2.67;;;;;16.20;100833.00;;;;2086114;28;20452;-50
2023/02/17 01:29:30;;;;;;;3.10;2.90;;;;;16.20;100834.00;;;;2086431;28;20263;-50
2023/02/17 01:30:30;;;;;;;3.17;2.87;;;;;16.20;100831.00;;;;2086315;28;20221;-50
2023/02/17 01:31:31;;;;;;;2.90;2.70;;;;;16.20;100832.00;;;;2086869;28;20270;-50
2023/02/17 01:32:31;;;;;;;2.73;2.53;;;;;16.20;100834.00;;;;2086945;28;20307;-50
2023/02/17 01:33:31;;;;;;;2.80;2.60;;;;;16.20;100833.00;;;;2086354;28;20217;-50
2023/02/17 01:34:32;;;;;;;2.80;2.60;;;;;16.20;100830.00;;;;2086731;28;20734;-50
2023/02/17 01:35:33;;;;;;;3.27;2.97;;;;;16.20;100833.00;;;;2087160;28;20665;-50
2023/02/17 01:36:33;;;;;;;3.00;2.77;;;;;16.10;100829.00;;;;2086897;28;20459;-51
2023/02/17 01:37:34;;;;;;;2.63;2.43;;;;;16.20;100824.00;;;;2086486;28;20212;-51
2023/02/17 01:38:34;;;;;;;2.50;2.30;;;;;16.20;100829.00;;;;2085250;28;20224;-50
2023/02/17 01:39:35;;;;;;;3.10;2.80;;;;;16.20;100825.00;;;;2087142;28;20236;-50
2023/02/17 01:40:35;;;;;;;2.77;2.57;;;;;16.20;100814.00;;;;2087206;28;20677;-50
2023/02/17 01:41:35;;;;;;;3.60;3.27;;;;;16.20;100822.00;;;;2086528;28;20209;-50
2023/02/17 01:42:36;;;;;;;2.70;2.50;;;;;16.20;100819.00;;;;2086314;28;20237;-50
2023/02/17 01:43:36;;;;;;;3.00;2.70;;;;;16.20;100818.00;;;;2086263;28;20263;-50
2023/02/17 01:45:15;;;;;;;2.90;2.60;;;;;16.20;100822.00;;;;2086703;28;20236;-50
2023/02/17 01:46:15;;;;;;;3.00;2.70;;;;;16.20;100813.00;;;;2086707;28;20228;-50
2023/02/17 01:47:16;;;;;;;2.60;2.40;;;;;16.20;100812.00;;;;2086835;28;20227;-50
2023/02/17 01:48:43;;;;;;;2.57;2.37;;;;;16.20;100821.00;;;;2086295;28;20213;-51
2023/02/17 01:49:43;;;;;;;2.50;2.30;;;;;16.20;100815.00;;;;2081928;28;20489;-50
2023/02/17 01:50:54;;;;;;;3.17;2.87;;;;;16.20;100810.00;;;;2087157;28;20299;-50
2023/02/17 01:52:08;;;;;;;2.63;2.42;;;;;16.20;100807.00;;;;2085995;28;20448;-50
2023/02/17 01:53:09;;;;;;;3.05;2.78;;;;;16.20;100802.00;;;;2079995;28;20258;-50
2023/02/17 01:54:19;;;;;;;2.90;2.70;;;;;16.20;100773.00;;;;2086249;28;20264;-50
2023/02/17 01:55:20;;;;;;;2.80;2.58;;;;;16.20;100806.00;;;;2086178;28;20206;-50
2023/02/17 01:56:20;;;;;;;3.10;2.90;;;;;16.20;100797.00;;;;2076358;28;20235;-50
2023/02/17 01:57:22;;;;;;;3.27;3.00;;;;;16.20;100797.00;;;;2077861;28;20209;-50
2023/02/17 01:58:22;;;;;;;2.78;2.58;;;;;16.20;100797.00;;;;2076799;28;20210;-50
2023/02/17 01:59:22;;;;;;;2.70;2.47;;;;;16.20;100796.00;;;;2078055;28;20694;-50
2023/02/17 02:00:23;;;;;;;3.10;2.80;;;;;16.20;100796.00;;;;2086241;28;20215;-50
2023/02/17 02:01:23;;;;;;;3.20;3.00;;;;;16.20;100791.00;;;;2086017;28;20216;-50
2023/02/17 02:02:24;;;;;;;4.50;2.80;;;;;16.20;100797.00;;;;2086263;28;20238;-50
2023/02/17 02:03:24;;;;;;;2.60;2.40;;;;;16.20;100796.00;;;;2087005;28;20216;-50
2023/02/17 02:04:26;;;;;;;3.13;2.93;;;;;16.20;100776.00;;;;2086285;28;20209;-50
2023/02/17 02:05:26;;;;;;;2.83;2.63;;;;;16.20;100790.00;;;;2078019;28;20252;-50
2023/02/17 02:06:27;;;;;;;2.50;2.30;;;;;16.20;100795.00;;;;2078208;28;20567;-50
2023/02/17 02:07:30;;;;;;;2.90;2.70;;;;;16.20;100787.00;;;;2077932;28;20217;-50
2023/02/17 02:08:34;;;;;;;2.72;2.53;;;;;16.20;100790.00;;;;2076675;28;20221;-50
2023/02/17 02:09:37;;;;;;;3.10;2.63;;;;;16.20;100784.00;;;;2084161;28;20231;-50
2023/02/17 02:10:37;;;;;;;2.75;2.55;;;;;15.80;100786.00;;;;2087128;28;20209;-50
2023/02/17 02:11:38;;;;;;;2.90;2.70;;;;;16.20;100785.00;;;;2086692;28;20238;-50
2023/02/17 02:12:39;;;;;;;3.30;2.70;;;;;16.20;100780.00;;;;2086779;28;20223;-50
2023/02/17 02:13:39;;;;;;;3.40;3.10;;;;;16.20;100787.00;;;;2085716;28;20218;-50
2023/02/17 02:14:39;;;;;;;2.80;2.60;;;;;16.20;100784.00;;;;2086849;28;20701;-50
2023/02/17 02:15:44;;;;;;;2.70;2.50;;;;;16.20;100785.00;;;;2086724;28;20925;-50
2023/02/17 02:17:03;;;;;;;2.83;2.63;;;;;16.20;100782.00;;;;2077796;28;21051;-50
2023/02/17 02:18:38;;;;;;;2.47;2.28;;;;;16.20;100780.00;;;;2074115;28;20266;-50
2023/02/17 02:20:17;;;;;;;3.00;2.80;;;;;16.20;100780.00;;;;2083660;28;20300;-50
2023/02/17 02:21:44;;;;;;;2.58;2.38;;;;;16.20;100778.00;;;;2081979;28;20791;-51
2023/02/17 02:23:03;;;;;;;2.92;2.72;;;;;16.20;100777.00;;;;2081343;28;20270;-50
2023/02/17 02:24:24;;;;;;;2.47;2.25;;;;;16.20;100783.00;;;;2086003;28;20227;-50
2023/02/17 02:25:38;;;;;;;2.53;2.33;;;;;16.20;100771.00;;;;2086153;28;20312;-50
2023/02/17 02:27:07;;;;;;;2.30;2.10;;;;;16.20;100770.00;;;;2079309;28;20716;-50
2023/02/17 02:28:19;;;;;;;2.88;2.67;;;;;16.20;100778.00;;;;2083461;28;20293;-50
2023/02/17 02:29:38;;;;;;;3.08;2.78;;;;;16.20;100775.00;;;;2087881;28;20693;-51
2023/02/17 02:30:46;;;;;;;2.85;2.42;;;;;16.20;100780.00;;;;2088321;28;20224;-50
2023/02/17 02:31:58;;;;;;;2.75;2.55;;;;;16.20;100792.00;;;;2084228;28;20208;-50
2023/02/17 02:33:03;;;;;;;2.70;2.50;;;;;16.20;100780.00;;;;2079344;28;20436;-51
2023/02/17 02:34:15;;;;;;;2.42;2.08;;;;;16.20;100785.00;;;;2073033;28;20222;-51
2023/02/17 02:35:41;;;;;;;2.90;2.60;;;;;16.20;100782.00;;;;2072897;28;20249;-50
2023/02/17 02:36:48;;;;;;;2.65;2.45;;;;;16.20;100778.00;;;;2083187;28;20236;-51
2023/02/17 02:38:10;;;;;;;2.38;2.17;;;;;16.20;100781.00;;;;2087421;28;20247;-51
2023/02/17 02:39:13;;;;;;;2.85;2.65;;;;;16.20;100771.00;;;;2082891;28;20209;-50
2023/02/17 02:40:13;;;;;;;2.60;2.40;;;;;15.80;100767.00;;;;2074024;28;20273;-51
2023/02/17 02:41:18;;;;;;;2.60;2.40;;;;;16.20;100773.00;;;;2065079;28;20269;-51
2023/02/17 02:42:20;;;;;;;2.70;2.50;;;;;16.20;100768.00;;;;2079554;28;20213;-50
2023/02/17 02:43:21;;;;;;;2.50;2.30;;;;;16.20;100771.00;;;;2071493;28;20611;-51
2023/02/17 02:44:21;;;;;;;3.00;2.70;;;;;16.20;100762.00;;;;2071407;28;20245;-51
2023/02/17 02:45:21;;;;;;;2.60;2.40;;;;;16.20;100762.00;;;;2078749;28;20229;-51
2023/02/17 02:46:22;;;;;;;2.90;2.70;;;;;16.20;100746.00;;;;2087646;28;20228;-51
2023/02/17 02:47:49;;;;;;;2.67;2.47;;;;;16.20;100755.00;;;;2088164;28;20213;-50
2023/02/17 02:48:50;;;;;;;2.63;2.35;;;;;16.20;100754.00;;;;2087411;28;20604;-53
2023/02/17 02:49:50;;;;;;;2.63;2.30;;;;;16.20;100759.00;;;;2088306;28;20208;-51
2023/02/17 02:50:56;;;;;;;2.90;2.70;;;;;16.20;100754.00;;;;2087504;28;20208;-51
2023/02/17 02:52:15;;;;;;;2.45;2.25;;;;;15.90;100646.00;;;;2087566;28;20212;-51
2023/02/17 02:53:55;;;;;;;3.08;2.33;;;;;16.20;100657.00;;;;2079540;28;20241;-50
2023/02/17 02:55:22;;;;;;;2.50;2.30;;;;;16.20;100744.00;;;;2083008;28;20315;-51
2023/02/17 02:56:45;;;;;;;2.70;2.50;;;;;16.20;100738.00;;;;2076606;28;20768;-51
2023/02/17 02:58:05;;;;;;;2.85;2.47;;;;;16.20;100745.00;;;;2078984;28;20316;-51
2023/02/17 02:59:57;;;;;;;2.78;2.58;;;;;16.20;100734.00;;;;2083548;28;20212;-51
2023/02/17 03:01:00;;;;;;;2.95;2.65;;;;;16.20;100722.00;;;;2052502;28;20220;-50
2023/02/17 03:02:06;;;;;;;2.55;2.35;;;;;16.20;100743.00;;;;2077788;28;20213;-51
2023/02/17 03:03:28;;;;;;;2.70;2.50;;;;;16.20;100735.00;;;;2088410;28;20221;-50
2023/02/17 03:04:35;;;;;;;2.60;2.40;;;;;16.20;100714.00;;;;2086969;28;20223;-51
2023/02/17 03:06:05;;;;;;;2.88;2.63;;;;;16.20;100716.00;;;;2074639;28;20296;-51
2023/02/17 03:07:21;;;;;;;3.35;2.88;;;;;16.20;100723.00;;;;2072160;28;20272;-51
2023/02/17 03:08:49;;;;;;;2.65;2.45;;;;;16.20;100727.00;;;;2074173;28;20210;-51
2023/02/17 03:09:51;;;;;;;2.30;2.10;;;;;16.20;100700.00;;;;2076623;28;20267;-51
2023/02/17 03:10:52;;;;;;;2.45;2.25;;;;;16.20;100727.00;;;;2069818;28;20223;-50
2023/02/17 03:11:53;;;;;;;2.70;2.50;;;;;16.20;100723.00;;;;2069949;28;20218;-51
2023/02/17 03:12:54;;;;;;;2.70;2.50;;;;;16.20;100739.00;;;;2070347;28;20269;-50
2023/02/17 03:13:54;;;;;;;2.73;2.53;;;;;16.20;100735.00;;;;2078817;28;20252;-51
2023/02/17 03:15:00;;;;;;;2.03;1.90;;;;;16.20;100732.00;;;;2086906;28;20273;-51
2023/02/17 03:16:00;;;;;;;2.58;2.38;;;;;16.20;100733.00;;;;2078867;28;20221;-51
2023/02/17 03:17:01;;;;;;;2.47;2.27;;;;;16.20;100735.00;;;;2070495;28;20646;-51
2023/02/17 03:18:01;;;;;;;2.30;2.10;;;;;16.20;100737.00;;;;2085785;28;20773;-51
2023/02/17 03:19:02;;;;;;;2.57;2.37;;;;;16.20;100751.00;;;;2086541;28;20649;-52
2023/02/17 03:20:04;;;;;;;2.65;2.30;;;;;16.20;100736.00;;;;2087136;28;20240;-51
2023/02/17 03:21:09;;;;;;;2.90;2.53;;;;;16.20;100737.00;;;;2086394;28;20914;-50
2023/02/17 03:22:16;;;;;;;2.35;2.15;;;;;16.20;100742.00;;;;2070392;28;20567;-51
2023/02/17 03:23:16;;;;;;;2.45;2.25;;;;;16.20;100731.00;;;;2056156;28;20691;-51
2023/02/17 03:24:17;;;;;;;2.60;2.40;;;;;16.20;100741.00;;;;2069670;28;20214;-50
2023/02/17 03:25:18;;;;;;;2.67;2.47;;;;;16.20;100730.00;;;;2086968;28;20278;-51
2023/02/17 03:26:18;;;;;;;2.30;2.10;;;;;16.20;100734.00;;;;2086861;28;20307;-51
2023/02/17 03:27:18;;;;;;;3.27;2.50;;;;;16.20;100737.00;;;;2087540;28;20213;-50
2023/02/17 03:28:19;;;;;;;2.23;2.03;;;;;16.20;100732.00;;;;2085439;28;20217;-51
2023/02/17 03:29:19;;;;;;;1.97;1.87;;;;;16.20;100734.00;;;;2087065;28;20235;-51
2023/02/17 03:30:19;;;;;;;2.30;2.10;;;;;16.20;100735.00;;;;2087111;28;20212;-51
2023/02/17 03:31:20;;;;;;;2.40;2.20;;;;;16.20;100725.00;;;;2086982;28;20220;-50
2023/02/17 03:32:20;;;;;;;2.70;2.50;;;;;16.20;100728.00;;;;2086537;28;20205;-51
2023/02/17 03:33:20;;;;;;;2.60;2.40;;;;;16.20;100718.00;;;;2087474;28;20254;-51
2023/02/17 03:34:21;;;;;;;2.20;2.00;;;;;16.20;100731.00;;;;2086587;28;20209;-51
2023/02/17 03:35:21;;;;;;;2.73;2.10;;;;;16.20;100723.00;;;;2086628;28;20292;-50
2023/02/17 03:36:21;;;;;;;2.27;2.00;;;;;16.20;100720.00;;;;2087347;28;20273;-51
2023/02/17 03:37:22;;;;;;;2.37;2.17;;;;;16.20;100727.00;;;;2087436;28;20212;-51
2023/02/17 03:38:22;;;;;;;2.40;2.20;;;;;16.20;100727.00;;;;2085709;28;20208;-51
2023/02/17 03:39:22;;;;;;;2.83;2.23;;;;;16.20;100736.00;;;;2087229;28;20213;-51
2023/02/17 03:40:23;;;;;;;2.67;2.47;;;;;15.80;100732.00;;;;2087077;28;20212;-52
2023/02/17 03:41:23;;;;;;;2.00;1.90;;;;;16.20;100737.00;;;;2087386;28;20291;-50
2023/02/17 03:42:23;;;;;;;2.50;2.30;;;;;16.20;100735.00;;;;2087767;28;20228;-52
2023/02/17 03:43:24;;;;;;;2.13;2.03;;;;;16.20;100732.00;;;;2087653;28;20212;-51
2023/02/17 03:44:24;;;;;;;2.53;2.30;;;;;16.20;100727.00;;;;2081384;28;20220;-51
2023/02/17 03:45:24;;;;;;;2.37;2.17;;;;;16.20;100727.00;;;;2095426;28;20229;-51
2023/02/17 03:46:25;;;;;;;2.93;2.70;;;;;16.20;100728.00;;;;2091742;28;20249;-51
2023/02/17 03:47:25;;;;;;;2.50;2.30;;;;;16.20;100727.00;;;;2087859;28;20213;-51
2023/02/17 03:48:25;;;;;;;2.50;2.30;;;;;16.20;100722.00;;;;2086347;28;20217;-50
2023/02/17 03:49:26;;;;;;;2.50;2.30;;;;;16.20;100722.00;;;;2087119;28;20220;-51
2023/02/17 03:50:26;;;;;;;2.03;1.93;;;;;16.20;100735.00;;;;2087308;28;20561;-51
2023/02/17 03:51:26;;;;;;;2.50;2.30;;;;;16.20;100740.00;;;;2087318;28;20703;-51
2023/02/17 03:52:27;;;;;;;1.83;1.70;;;;;16.20;100736.00;;;;2087687;28;20221;-52
2023/02/17 03:53:27;;;;;;;2.23;2.03;;;;;16.20;100722.00;;;;2087537;28;20418;-51
2023/02/17 03:54:27;;;;;;;2.70;2.50;;;;;16.20;100736.00;;;;2087259;28;20213;-50
2023/02/17 03:55:28;;;;;;;3.30;2.23;;;;;16.20;100749.00;;;;2087723;28;20216;-50
2023/02/17 03:56:28;;;;;;;2.20;2.00;;;;;16.20;100737.00;;;;2087704;28;20216;-49
2023/02/17 03:57:30;;;;;;;2.33;2.13;;;;;16.20;100749.00;;;;2087602;28;20374;-51
2023/02/17 03:58:30;;;;;;;2.08;1.98;;;;;16.20;100750.00;;;;2085063;28;20235;-51
2023/02/17 03:59:31;;;;;;;2.00;1.87;;;;;16.20;100744.00;;;;2087598;28;20213;-51
2023/02/17 04:00:31;;;;;;;2.40;2.20;;;;;16.20;100751.00;;;;2087956;28;20263;-51
2023/02/17 04:01:32;;;;;;;2.30;2.00;;;;;16.20;100745.00;;;;2087711;28;20210;-51
2023/02/17 04:02:32;;;;;;;2.93;2.50;;;;;16.20;100750.00;;;;2087200;28;20208;-51
2023/02/17 04:03:32;;;;;;;2.23;2.03;;;;;16.20;100740.00;;;;2087746;28;20207;-50
2023/02/17 04:04:33;;;;;;;1.90;1.80;;;;;16.20;100746.00;;;;2087430;28;20232;-51
2023/02/17 04:05:33;;;;;;;2.73;2.53;;;;;16.20;100739.00;;;;2087756;28;20219;-51
2023/02/17 04:06:33;;;;;;;2.10;1.90;;;;;16.20;100734.00;;;;2087633;28;20335;-51
2023/02/17 04:07:34;;;;;;;2.73;2.53;;;;;16.20;100737.00;;;;2087693;28;20209;-51
2023/02/17 04:08:34;;;;;;;2.53;2.33;;;;;16.20;100742.00;;;;2085773;28;20291;-51
2023/02/17 04:09:34;;;;;;;2.30;2.10;;;;;16.20;100738.00;;;;2084962;28;20205;-51
2023/02/17 04:10:35;;;;;;;2.40;2.20;;;;;16.20;100741.00;;;;2087402;28;20767;-50
2023/02/17 04:11:35;;;;;;;2.30;2.10;;;;;16.20;100742.00;;;;2086580;28;20212;-50
2023/02/17 04:12:35;;;;;;;2.50;2.30;;;;;16.20;100741.00;;;;2087381;28;20209;-51
2023/02/17 04:13:36;;;;;;;2.30;2.10;;;;;16.20;100744.00;;;;2087004;28;20236;-51
2023/02/17 04:14:36;;;;;;;2.70;2.50;;;;;16.20;100749.00;;;;2086639;28;20977;-51
2023/02/17 04:15:36;;;;;;;2.23;2.03;;;;;16.20;100746.00;;;;2087475;28;20237;-50
2023/02/17 04:16:38;;;;;;;2.20;2.00;;;;;15.80;100741.00;;;;2087532;28;20213;-50
2023/02/17 04:17:38;;;;;;;2.30;2.10;;;;;15.90;100740.00;;;;2087322;28;20681;-51
2023/02/17 04:18:38;;;;;;;2.27;2.07;;;;;16.20;100751.00;;;;2086320;28;20212;-51
2023/02/17 04:19:39;;;;;;;2.20;2.00;;;;;16.20;100752.00;;;;2087384;28;20290;-51
2023/02/17 04:20:39;;;;;;;2.30;2.10;;;;;16.20;100754.00;;;;2087245;28;20221;-51
2023/02/17 04:21:39;;;;;;;2.30;2.10;;;;;16.20;100742.00;;;;2086199;28;20213;-51
2023/02/17 04:22:40;;;;;;;2.47;2.27;;;;;16.20;100759.00;;;;2087275;28;20286;-50
2023/02/17 04:23:40;;;;;;;2.10;2.00;;;;;16.20;100755.00;;;;2087518;28;20236;-51
2023/02/17 04:24:41;;;;;;;2.23;2.03;;;;;16.20;100759.00;;;;2087640;28;20244;-51
2023/02/17 04:25:41;;;;;;;2.60;2.40;;;;;16.20;100674.00;;;;2087411;28;20220;-51
2023/02/17 04:26:41;;;;;;;2.40;2.20;;;;;16.20;100758.00;;;;2087097;28;20649;-51
2023/02/17 04:27:42;;;;;;;2.33;2.13;;;;;16.20;100756.00;;;;2087548;28;20581;-50
2023/02/17 04:28:42;;;;;;;2.30;2.10;;;;;16.20;100758.00;;;;2086605;28;20256;-51
2023/02/17 04:29:42;;;;;;;2.43;2.23;;;;;16.20;100756.00;;;;2086937;28;20372;-51
2023/02/17 04:30:44;;;;;;;1.93;1.83;;;;;16.20;100753.00;;;;2086256;28;20291;-50
2023/02/17 04:31:44;;;;;;;2.92;2.72;;;;;16.20;100753.00;;;;2087401;28;20244;-50
2023/02/17 04:32:44;;;;;;;2.20;2.07;;;;;16.20;100758.00;;;;2087456;28;20584;-51
2023/02/17 04:33:45;;;;;;;1.87;1.77;;;;;16.20;100759.00;;;;2087421;28;20639;-51
2023/02/17 04:34:45;;;;;;;1.90;1.80;;;;;16.20;100744.00;;;;2087348;28;20590;-51
2023/02/17 04:35:46;;;;;;;1.83;1.70;;;;;16.20;100739.00;;;;2086496;28;20871;-51
2023/02/17 04:36:46;;;;;;;1.80;1.70;;;;;16.20;100735.00;;;;2086563;28;20787;-51
2023/02/17 04:37:46;;;;;;;2.03;1.93;;;;;16.20;100727.00;;;;2087291;28;20209;-53
2023/02/17 04:38:47;;;;;;;2.23;2.03;;;;;16.20;100723.00;;;;2085519;28;20220;-51
2023/02/17 04:39:47;;;;;;;2.30;2.10;;;;;16.20;100730.00;;;;2086741;28;20274;-50
2023/02/17 04:40:47;;;;;;;2.20;1.97;;;;;16.20;100726.00;;;;2087128;28;20201;-52
2023/02/17 04:41:48;;;;;;;2.20;2.00;;;;;16.20;100725.00;;;;2087423;28;20208;-50
2023/02/17 04:42:48;;;;;;;1.90;1.70;;;;;16.20;100733.00;;;;2087169;28;20236;-52
2023/02/17 04:43:48;;;;;;;2.60;2.40;;;;;16.20;100722.00;;;;2086928;28;20211;-51
2023/02/17 04:44:48;;;;;;;1.53;1.43;;;;;16.20;100732.00;;;;2086896;28;20212;-50
2023/02/17 04:45:49;;;;;;;1.87;1.77;;;;;16.20;100727.00;;;;2087379;28;20270;-51
2023/02/17 04:46:49;;;;;;;2.67;2.47;;;;;16.20;100731.00;;;;2087281;28;20209;-51
2023/02/17 04:47:49;;;;;;;2.30;2.10;;;;;16.20;100727.00;;;;2086873;28;20283;-51
2023/02/17 04:48:50;;;;;;;1.67;1.57;;;;;16.20;100725.00;;;;2086705;28;20208;-51
2023/02/17 04:49:50;;;;;;;2.10;1.90;;;;;16.20;100731.00;;;;2086292;28;20215;-51
2023/02/17 04:50:50;;;;;;;2.47;2.23;;;;;16.20;100724.00;;;;2087483;28;20209;-51
2023/02/17 04:51:51;;;;;;;2.07;1.97;;;;;16.20;100727.00;;;;2087534;28;20205;-51
2023/02/17 04:52:51;;;;;;;2.10;2.00;;;;;16.20;100725.00;;;;2087018;28;20217;-50
2023/02/17 04:53:51;;;;;;;1.80;1.63;;;;;16.20;100740.00;;;;2087220;28;20205;-51
2023/02/17 04:54:52;;;;;;;2.00;1.90;;;;;16.20;100730.00;;;;2087040;28;20250;-51
2023/02/17 04:55:52;;;;;;;2.10;1.90;;;;;16.20;100726.00;;;;2086892;28;20238;-51
2023/02/17 04:56:52;;;;;;;2.07;1.90;;;;;16.20;100735.00;;;;2087333;28;20224;-51
2023/02/17 04:57:53;;;;;;;1.80;1.70;;;;;16.20;100734.00;;;;2086853;28;20223;-51
2023/02/17 04:58:53;;;;;;;2.17;1.97;;;;;16.20;100725.00;;;;2087025;28;20212;-52
2023/02/17 04:59:53;;;;;;;1.60;1.50;;;;;16.20;100720.00;;;;2087387;28;20225;-50
2023/02/17 05:00:54;;;;;;;2.07;1.87;;;;;16.20;100723.00;;;;2087426;28;20223;-51
2023/02/17 05:01:54;;;;;;;1.93;1.83;;;;;16.20;100720.00;;;;2078455;28;20206;-51
2023/02/17 05:02:54;;;;;;;1.70;1.60;;;;;16.20;100709.00;;;;2078424;28;20297;-51
2023/02/17 05:03:55;;;;;;;1.87;1.77;;;;;16.20;100719.00;;;;2087189;28;20263;-51
2023/02/17 05:04:55;;;;;;;2.23;2.03;;;;;15.70;100716.00;;;;2086267;28;20217;-51
2023/02/17 05:05:55;;;;;;;1.97;1.80;;;;;16.20;100719.00;;;;2086029;28;20224;-50
2023/02/17 05:06:56;;;;;;;2.20;2.00;;;;;16.20;100721.00;;;;2086336;28;20222;-51
2023/02/17 05:07:56;;;;;;;2.10;2.00;;;;;16.20;100725.00;;;;2085614;28;20286;-51
2023/02/17 05:08:56;;;;;;;1.83;1.73;;;;;16.20;100716.00;;;;2085677;28;20247;-50
2023/02/17 05:09:57;;;;;;;1.77;1.67;;;;;16.20;100714.00;;;;2086389;28;20217;-51
2023/02/17 05:10:57;;;;;;;2.10;1.90;;;;;16.20;100712.00;;;;2086923;28;20217;-50
2023/02/17 05:11:58;;;;;;;2.40;2.20;;;;;16.20;100731.00;;;;2086471;28;20668;-51